createdAt,value
2022-08-07T00:00:14.732Z,16.78
2022-08-07T00:02:45.185Z,16.74
2022-08-07T00:05:12.096Z,16.74
2022-08-07T00:07:40.773Z,16.71
2022-08-07T00:10:26.558Z,16.65
2022-08-07T00:12:59.734Z,16.51
2022-08-07T00:15:37.844Z,16.46
2022-08-07T00:18:19.502Z,16.38
2022-08-07T00:20:49.312Z,16.33
2022-08-07T00:23:17.065Z,16.38
2022-08-07T00:25:45.847Z,16.44
2022-08-07T00:28:18.649Z,16.43
2022-08-07T00:30:48.781Z,16.49
2022-08-07T00:33:15.610Z,16.50
2022-08-07T00:35:46.504Z,16.47
2022-08-07T00:38:16.057Z,16.43
2022-08-07T00:40:58.520Z,16.38
2022-08-07T00:44:01.274Z,16.42
2022-08-07T00:46:11.601Z,16.44
2022-08-07T00:48:42.422Z,16.45
2022-08-07T00:51:10.193Z,16.50
2022-08-07T00:53:38.857Z,16.53
2022-08-07T00:56:18.060Z,16.51
2022-08-07T00:58:47.124Z,16.48
2022-08-07T01:01:17.872Z,16.49
2022-08-07T01:03:56.827Z,16.46
2022-08-07T01:06:27.827Z,16.44
2022-08-07T01:08:55.690Z,16.43
2022-08-07T01:12:27.804Z,16.47
2022-08-07T01:14:10.106Z,16.45
2022-08-07T01:16:37.718Z,16.49
2022-08-07T01:19:10.844Z,16.50
2022-08-07T01:21:46.654Z,16.52
2022-08-07T01:24:14.354Z,16.53
2022-08-07T01:26:47.876Z,16.54
2022-08-07T01:29:19.746Z,16.56
2022-08-07T01:31:48.615Z,16.53
2022-08-07T01:34:18.785Z,16.54
2022-08-07T01:36:52.774Z,16.51
2022-08-07T01:39:41.293Z,16.39
2022-08-07T01:42:37.935Z,16.35
2022-08-07T01:45:05.376Z,16.35
2022-08-07T01:48:29.207Z,16.33
2022-08-07T01:50:30.499Z,16.32
2022-08-07T01:53:00.723Z,16.31
2022-08-07T01:55:29.881Z,16.27
2022-08-07T01:58:06.667Z,16.20
2022-08-07T02:01:10.130Z,16.17
2022-08-07T02:03:51.056Z,16.20
2022-08-07T02:06:31.441Z,16.21
2022-08-07T02:09:04.237Z,16.21
2022-08-07T02:12:03.528Z,16.19
2022-08-07T02:14:40.167Z,16.14
2022-08-07T02:17:11.015Z,16.11
2022-08-07T02:20:07.570Z,16.09
2022-08-07T02:22:30.568Z,16.03
2022-08-07T02:24:58.167Z,16.00
2022-08-07T02:27:34.266Z,16.01
2022-08-07T02:30:03.647Z,16.01
2022-08-07T02:32:36.189Z,16.00
2022-08-07T02:35:09.177Z,16.01
2022-08-07T02:37:44.071Z,16.01
2022-08-07T02:40:35.165Z,16.01
2022-08-07T02:43:00.205Z,16.00
2022-08-07T02:45:59.408Z,15.98
2022-08-07T02:48:15.958Z,15.92
2022-08-07T02:50:47.558Z,15.91
2022-08-07T02:53:27.318Z,15.90
2022-08-07T02:56:02.361Z,15.90
2022-08-07T02:58:33.787Z,15.89
2022-08-07T03:01:03.230Z,15.88
2022-08-07T03:03:50.004Z,15.90
2022-08-07T03:06:25.994Z,15.89
2022-08-07T03:09:01.960Z,15.92
2022-08-07T03:11:32.636Z,15.84
2022-08-07T03:14:02.069Z,15.81
2022-08-07T03:16:30.957Z,15.82
2022-08-07T03:18:58.606Z,15.85
2022-08-07T03:21:25.769Z,15.91
2022-08-07T03:24:18.462Z,15.96
2022-08-07T03:26:58.079Z,15.98
2022-08-07T03:29:29.708Z,15.92
2022-08-07T03:31:57.403Z,15.86
2022-08-07T03:34:27.559Z,15.87
2022-08-07T03:36:57.283Z,15.93
2022-08-07T03:39:46.276Z,15.97
2022-08-07T03:42:14.307Z,16.01
2022-08-07T03:44:41.614Z,16.00
2022-08-07T03:47:14.104Z,15.99
2022-08-07T03:49:52.166Z,15.99
2022-08-07T03:52:26.592Z,16.02
2022-08-07T03:54:57.265Z,16.08
2022-08-07T03:58:34.914Z,16.07
2022-08-07T04:00:21.031Z,16.03
2022-08-07T04:02:56.633Z,16.05
2022-08-07T04:05:24.028Z,16.08
2022-08-07T04:08:06.937Z,16.12
2022-08-07T04:10:38.731Z,16.05
2022-08-07T04:13:07.806Z,16.03
2022-08-07T04:15:42.994Z,16.02
2022-08-07T04:18:56.560Z,16.06
2022-08-07T04:20:59.216Z,16.11
2022-08-07T04:23:43.514Z,16.15
2022-08-07T04:26:16.857Z,16.20
2022-08-07T04:28:48.372Z,16.22
2022-08-07T04:31:20.296Z,16.25
2022-08-07T04:34:02.950Z,16.23
2022-08-07T04:36:29.557Z,16.22
2022-08-07T04:38:56.518Z,16.25
2022-08-07T04:41:24.923Z,16.25
2022-08-07T04:44:12.498Z,16.22
2022-08-07T04:47:07.953Z,16.16
2022-08-07T04:50:03.527Z,16.18
2022-08-07T04:53:03.802Z,16.18
2022-08-07T04:58:10.696Z,16.13
2022-08-07T05:01:39.049Z,16.16
2022-08-07T05:04:18.611Z,16.16
2022-08-07T05:06:56.787Z,16.16
2022-08-07T05:09:45.489Z,16.18
2022-08-07T05:12:26.573Z,16.18
2022-08-07T05:15:04.573Z,16.17
2022-08-07T05:17:52.968Z,16.18
2022-08-07T05:20:25.765Z,16.21
2022-08-07T05:22:57.870Z,16.18
2022-08-07T05:25:54.461Z,16.21
2022-08-07T05:28:20.339Z,16.23
2022-08-07T05:30:52.127Z,16.28
2022-08-07T05:33:20.751Z,16.20
2022-08-07T05:35:50.684Z,16.11
2022-08-07T05:38:58.217Z,16.14
2022-08-07T05:41:12.253Z,16.16
2022-08-07T05:44:07.945Z,16.21
2022-08-07T05:46:34.860Z,16.29
2022-08-07T05:49:11.746Z,16.33
2022-08-07T05:51:40.035Z,16.35
2022-08-07T05:54:29.295Z,16.35
2022-08-07T05:56:56.961Z,16.35
2022-08-07T05:59:25.721Z,16.38
2022-08-07T06:01:57.171Z,16.37
2022-08-07T06:04:26.346Z,16.39
2022-08-07T06:07:03.862Z,16.46
2022-08-07T06:10:03.875Z,16.45
2022-08-07T06:12:27.768Z,16.42
2022-08-07T06:15:05.094Z,16.39
2022-08-07T06:17:32.745Z,16.45
2022-08-07T06:20:05.688Z,16.47
2022-08-07T06:22:38.812Z,16.45
2022-08-07T06:25:10.173Z,16.42
2022-08-07T06:28:00.623Z,16.46
2022-08-07T06:30:24.287Z,16.49
2022-08-07T06:33:02.360Z,16.54
2022-08-07T06:35:39.204Z,16.54
2022-08-07T06:38:20.670Z,16.45
2022-08-07T06:40:51.229Z,16.47
2022-08-07T06:43:22.174Z,16.51
2022-08-07T06:45:49.286Z,16.53
2022-08-07T06:48:16.224Z,16.48
2022-08-07T06:50:52.939Z,16.53
2022-08-07T06:55:29.493Z,16.55
2022-08-07T06:56:14.817Z,16.58
2022-08-07T07:00:14.774Z,16.67
2022-08-07T07:01:44.115Z,16.70
2022-08-07T07:04:33.056Z,16.72
2022-08-07T07:07:10.489Z,16.74
2022-08-07T07:09:50.869Z,16.77
2022-08-07T07:12:48.659Z,16.76
2022-08-07T07:15:32.736Z,16.81
2022-08-07T07:18:33.091Z,16.90
2022-08-07T07:21:19.895Z,16.97
2022-08-07T07:24:10.987Z,17.00
2022-08-07T07:26:37.815Z,17.08
2022-08-07T07:29:56.912Z,17.08
2022-08-07T07:31:57.904Z,17.10
2022-08-07T07:34:31.083Z,17.05
2022-08-07T07:37:14.765Z,17.12
2022-08-07T07:39:55.373Z,17.23
2022-08-07T07:42:33.093Z,17.25
2022-08-07T07:45:05.919Z,17.26
2022-08-07T07:47:42.708Z,17.29
2022-08-07T07:50:33.223Z,17.35
2022-08-07T07:53:05.956Z,17.41
2022-08-07T07:55:54.661Z,17.47
2022-08-07T07:58:29.386Z,17.52
2022-08-07T08:00:58.516Z,17.49
2022-08-07T08:04:06.090Z,17.53
2022-08-07T08:06:17.649Z,17.58
2022-08-07T08:08:45.098Z,17.62
2022-08-07T08:11:17.835Z,17.69
2022-08-07T08:14:02.817Z,17.80
2022-08-07T08:16:35.436Z,17.92
2022-08-07T08:19:17.804Z,17.95
2022-08-07T08:22:10.619Z,17.98
2022-08-07T08:25:18.674Z,18.00
2022-08-07T08:27:57.322Z,17.99
2022-08-07T08:30:29.657Z,18.07
2022-08-07T08:33:01.917Z,18.16
2022-08-07T08:35:42.949Z,18.31
2022-08-07T08:38:17.192Z,18.30
2022-08-07T08:40:54.305Z,18.26
2022-08-07T08:43:58.619Z,18.29
2022-08-07T08:46:49.180Z,18.28
2022-08-07T08:50:02.406Z,18.34
2022-08-07T08:52:36.186Z,18.39
2022-08-07T08:55:21.345Z,18.46
2022-08-07T08:58:08.831Z,18.43
2022-08-07T09:00:51.798Z,18.44
2022-08-07T09:03:47.444Z,18.45
2022-08-07T09:06:37.628Z,18.50
2022-08-07T09:09:48.224Z,18.63
2022-08-07T09:12:59.591Z,18.60
2022-08-07T09:16:21.670Z,18.54
2022-08-07T09:19:03.603Z,18.53
2022-08-07T09:22:09.635Z,18.57
2022-08-07T09:25:00.580Z,18.73
2022-08-07T09:28:00.240Z,18.85
2022-08-07T09:30:41.887Z,18.94
2022-08-07T09:33:56.624Z,19.00
2022-08-07T09:36:42.741Z,19.13
2022-08-07T09:39:55.454Z,19.27
2022-08-07T09:42:24.973Z,19.27
2022-08-07T09:47:23.619Z,19.02
2022-08-07T09:50:02.026Z,18.87
2022-08-07T09:52:09.661Z,18.97
2022-08-07T09:54:44.396Z,19.05
2022-08-07T09:57:26.590Z,19.08
2022-08-07T10:00:09.172Z,19.18
2022-08-07T10:03:08.226Z,19.28
2022-08-07T10:06:12.268Z,19.30
2022-08-07T10:09:15.218Z,19.11
2022-08-07T10:12:15.184Z,19.07
2022-08-07T10:15:04.237Z,19.12
2022-08-07T10:18:01.087Z,19.21
2022-08-07T10:20:35.375Z,19.14
2022-08-07T10:23:17.130Z,19.06
2022-08-07T10:26:25.437Z,19.05
2022-08-07T10:29:26.008Z,19.19
2022-08-07T10:32:50.926Z,19.22
2022-08-07T10:35:55.613Z,19.28
2022-08-07T10:38:48.403Z,19.36
2022-08-07T10:41:47.507Z,19.54
2022-08-07T10:44:09.767Z,19.58
2022-08-07T10:46:48.830Z,19.47
2022-08-07T10:49:49.585Z,19.42
2022-08-07T10:52:19.213Z,19.45
2022-08-07T10:55:01.898Z,19.40
2022-08-07T10:58:09.009Z,19.35
2022-08-07T11:01:11.769Z,19.31
2022-08-07T11:03:55.245Z,19.28
2022-08-07T11:06:47.888Z,19.26
2022-08-07T11:10:07.340Z,19.30
2022-08-07T11:12:18.945Z,19.47
2022-08-07T11:15:26.338Z,19.24
2022-08-07T11:18:13.791Z,19.14
2022-08-07T11:21:04.287Z,19.26
2022-08-07T11:23:48.304Z,19.43
2022-08-07T11:26:33.652Z,19.66
2022-08-07T11:29:42.093Z,19.77
2022-08-07T11:32:26.139Z,19.83
2022-08-07T11:34:59.769Z,19.94
2022-08-07T11:37:58.136Z,20.18
2022-08-07T11:40:56.109Z,20.34
2022-08-07T11:43:54.173Z,20.39
2022-08-07T11:46:48.608Z,20.25
2022-08-07T11:50:11.235Z,20.18
2022-08-07T11:52:38.056Z,20.28
2022-08-07T11:56:08.699Z,20.30
2022-08-07T11:58:16.122Z,20.09
2022-08-07T12:01:05.282Z,19.97
2022-08-07T12:03:54.549Z,19.89
2022-08-07T12:06:55.412Z,19.99
2022-08-07T12:09:46.230Z,20.23
2022-08-07T12:12:17.969Z,20.31
2022-08-07T12:15:01.436Z,20.39
2022-08-07T12:17:58.728Z,20.37
2022-08-07T12:20:46.342Z,20.40
2022-08-07T12:24:06.984Z,20.46
2022-08-07T12:26:44.836Z,20.51
2022-08-07T12:29:38.155Z,20.42
2022-08-07T12:32:21.921Z,20.48
2022-08-07T12:34:55.758Z,20.56
2022-08-07T12:37:28.474Z,20.65
2022-08-07T12:40:36.381Z,20.55
2022-08-07T12:43:03.682Z,20.71
2022-08-07T12:45:59.052Z,20.77
2022-08-07T12:48:52.151Z,20.68
2022-08-07T12:51:46.685Z,20.78
2022-08-07T12:54:54.316Z,20.81
2022-08-07T12:57:29.975Z,20.85
2022-08-07T13:00:20.959Z,20.90
2022-08-07T13:03:27.563Z,20.88
2022-08-07T13:07:00.105Z,20.93
2022-08-07T13:10:19.471Z,20.85
2022-08-07T13:13:47.254Z,20.73
2022-08-07T13:16:25.669Z,20.79
2022-08-07T13:19:45.652Z,20.96
2022-08-07T13:22:28.338Z,20.83
2022-08-07T13:25:02.473Z,20.84
2022-08-07T13:28:10.742Z,20.94
2022-08-07T13:30:40.401Z,20.87
2022-08-07T13:34:31.913Z,21.01
2022-08-07T13:36:22.151Z,21.09
2022-08-07T13:39:02.756Z,21.16
2022-08-07T13:41:47.612Z,21.16
2022-08-07T13:44:25.996Z,21.19
2022-08-07T13:46:58.857Z,21.19
2022-08-07T13:50:34.442Z,21.07
2022-08-07T13:52:32.194Z,21.08
2022-08-07T13:55:13.202Z,21.10
2022-08-07T13:58:28.139Z,21.31
2022-08-07T14:01:10.824Z,21.47
2022-08-07T14:04:06.791Z,21.51
2022-08-07T14:06:35.974Z,21.63
2022-08-07T14:09:06.001Z,21.47
2022-08-07T14:12:00.369Z,21.21
2022-08-07T14:14:39.982Z,21.08
2022-08-07T14:17:32.251Z,21.15
2022-08-07T14:20:42.188Z,21.32
2022-08-07T14:22:59.112Z,21.19
2022-08-07T14:25:39.700Z,21.12
2022-08-07T14:28:15.696Z,21.15
2022-08-07T14:30:52.093Z,21.26
2022-08-07T14:33:22.286Z,21.39
2022-08-07T14:38:50.499Z,21.61
2022-08-07T14:41:33.879Z,21.56
2022-08-07T14:44:16.389Z,21.51
2022-08-07T14:46:56.473Z,21.50
2022-08-07T14:49:58.227Z,21.57
2022-08-07T14:55:17.674Z,21.37
2022-08-07T14:57:55.139Z,21.28
2022-08-07T15:00:32.058Z,21.27
2022-08-07T15:03:18.659Z,21.32
2022-08-07T15:05:54.180Z,21.44
2022-08-07T15:08:32.868Z,21.30
2022-08-07T15:11:10.868Z,21.26
2022-08-07T15:13:53.387Z,21.37
2022-08-07T15:19:18.439Z,21.38
2022-08-07T15:22:04.190Z,21.42
2022-08-07T15:25:15.570Z,21.52
2022-08-07T15:27:23.752Z,21.62
2022-08-07T15:30:06.690Z,21.65
2022-08-07T15:42:42.097Z,21.68
2022-08-07T15:44:09.278Z,21.69
2022-08-07T15:50:05.634Z,21.60
2022-08-07T15:52:30.473Z,21.70
2022-08-07T15:55:02.598Z,21.66
2022-08-07T15:57:47.961Z,21.63
2022-08-07T16:00:32.214Z,21.65
2022-08-07T16:03:21.532Z,21.59
2022-08-07T16:06:01.532Z,21.72
2022-08-07T16:08:38.360Z,21.75
2022-08-07T16:11:17.397Z,21.67
2022-08-07T16:14:05.752Z,21.70
2022-08-07T16:16:49.396Z,21.54
2022-08-07T16:19:19.077Z,21.37
2022-08-07T16:22:55.673Z,21.23
2022-08-07T16:25:56.088Z,21.20
2022-08-07T16:29:18.586Z,21.07
2022-08-07T16:31:51.275Z,21.02
2022-08-07T16:34:48.739Z,21.04
2022-08-07T16:38:06.696Z,21.10
2022-08-07T16:40:23.377Z,21.11
2022-08-07T16:43:13.641Z,21.12
2022-08-07T16:46:21.012Z,21.16
2022-08-07T16:49:03.934Z,21.23
2022-08-07T16:52:41.630Z,21.38
2022-08-07T16:54:55.485Z,21.52
2022-08-07T16:58:02.391Z,21.54
2022-08-07T17:00:41.841Z,21.68
2022-08-07T17:03:11.372Z,21.69
2022-08-07T17:06:29.130Z,21.57
2022-08-07T17:09:10.458Z,21.44
2022-08-07T17:12:01.385Z,21.39
2022-08-07T17:14:43.886Z,21.42
2022-08-07T17:17:47.847Z,21.34
2022-08-07T17:20:41.817Z,21.34
2022-08-07T17:23:46.103Z,21.36
2022-08-07T17:26:30.750Z,21.28
2022-08-07T17:30:12.598Z,21.24
2022-08-07T17:32:30.687Z,21.31
2022-08-07T17:35:51.557Z,21.35
2022-08-07T17:38:08.391Z,21.26
2022-08-07T17:42:01.042Z,21.07
2022-08-07T17:44:02.286Z,20.97
2022-08-07T17:46:52.269Z,20.91
2022-08-07T17:49:44.575Z,20.92
2022-08-07T17:52:31.085Z,20.80
2022-08-07T17:55:14.032Z,20.71
2022-08-07T17:57:58.998Z,20.69
2022-08-07T18:00:34.595Z,20.63
2022-08-07T18:04:03.980Z,20.53
2022-08-07T18:06:36.728Z,20.42
2022-08-07T18:09:06.314Z,20.34
2022-08-07T18:12:17.329Z,20.25
2022-08-07T18:14:44.995Z,20.19
2022-08-07T18:18:44.740Z,20.04
2022-08-07T18:21:10.963Z,19.94
2022-08-07T18:23:43.238Z,19.85
2022-08-07T18:26:20.339Z,19.70
2022-08-07T18:29:05.654Z,19.57
2022-08-07T18:32:07.216Z,19.43
2022-08-07T18:35:00.877Z,19.34
2022-08-07T18:38:55.183Z,19.25
2022-08-07T18:40:59.801Z,19.07
2022-08-07T18:44:03.690Z,18.97
2022-08-07T18:47:00.487Z,18.90
2022-08-07T18:50:30.307Z,18.77
2022-08-07T18:53:06.089Z,18.63
2022-08-07T18:55:57.165Z,18.49
2022-08-07T18:59:04.979Z,18.36
2022-08-07T19:02:17.452Z,18.29
2022-08-07T19:04:57.455Z,18.15
2022-08-07T19:07:36.311Z,18.08
2022-08-07T19:10:22.709Z,18.07
2022-08-07T19:13:11.868Z,18.03
2022-08-07T19:17:01.153Z,17.90
2022-08-07T19:19:13.248Z,17.79
2022-08-07T19:22:05.176Z,17.55
2022-08-07T19:24:48.784Z,17.42
2022-08-07T19:28:58.621Z,17.31
2022-08-07T19:31:02.070Z,17.21
2022-08-07T19:33:08.229Z,17.15
2022-08-07T19:35:41.431Z,17.07
2022-08-07T19:38:17.145Z,16.94
2022-08-07T19:40:49.329Z,16.89
2022-08-07T19:43:48.680Z,16.86
2022-08-07T19:46:14.740Z,16.77
2022-08-07T19:48:53.800Z,16.71
2022-08-07T19:51:50.494Z,16.62
2022-08-07T19:54:32.177Z,16.50
2022-08-07T19:58:04.126Z,16.44
2022-08-07T19:59:54.212Z,16.31
2022-08-07T20:02:34.831Z,16.29
2022-08-07T20:05:12.480Z,16.21
2022-08-07T20:07:46.638Z,16.16
2022-08-07T20:10:38.366Z,16.06
2022-08-07T20:13:22.419Z,15.95
2022-08-07T20:15:50.108Z,15.90
2022-08-07T20:18:20.160Z,15.86
2022-08-07T20:20:47.418Z,15.75
2022-08-07T20:23:32.753Z,15.74
2022-08-07T20:26:10.279Z,15.65
2022-08-07T20:28:39.827Z,15.56
2022-08-07T20:31:21.377Z,15.43
2022-08-07T20:33:57.359Z,15.40
2022-08-07T20:36:27.266Z,15.39
2022-08-07T20:39:11.636Z,15.33
2022-08-07T20:41:48.727Z,15.32
2022-08-07T20:44:16.277Z,15.28
2022-08-07T20:46:46.178Z,15.26
2022-08-07T20:49:59.134Z,15.18
2022-08-07T20:52:02.329Z,15.14
2022-08-07T20:54:33.348Z,15.08
2022-08-07T20:57:04.584Z,15.09
2022-08-07T21:00:06.868Z,15.08
2022-08-07T21:02:54.061Z,14.98
2022-08-07T21:05:42.595Z,14.85
2022-08-07T21:08:28.754Z,14.78
2022-08-07T21:11:10.519Z,14.75
2022-08-07T21:13:43.720Z,14.77
2022-08-07T21:16:29.156Z,14.81
2022-08-07T21:18:59.736Z,14.84
2022-08-07T21:21:33.270Z,14.88
2022-08-07T21:24:26.377Z,14.86
2022-08-07T21:27:23.425Z,14.83
2022-08-07T21:30:04.102Z,14.81
2022-08-07T21:32:52.094Z,14.82
2022-08-07T21:35:34.969Z,14.85
2022-08-07T21:38:14.197Z,14.74
2022-08-07T21:40:47.060Z,14.75
2022-08-07T21:43:56.240Z,14.75
2022-08-07T21:46:36.609Z,14.74
2022-08-07T21:49:15.059Z,14.72
2022-08-07T21:51:57.656Z,14.72
2022-08-07T21:54:46.251Z,14.68
2022-08-07T21:57:39.407Z,14.71
2022-08-07T22:00:22.169Z,14.74
2022-08-07T22:02:59.434Z,14.69
2022-08-07T22:05:44.219Z,14.66
2022-08-07T22:08:18.414Z,14.64
2022-08-07T22:10:49.663Z,14.64
2022-08-07T22:13:17.412Z,14.68
2022-08-07T22:16:42.455Z,14.73
2022-08-07T22:19:01.088Z,14.74
2022-08-07T22:22:02.570Z,14.75
2022-08-07T22:24:32.849Z,14.73
2022-08-07T22:27:06.526Z,14.68
2022-08-07T22:29:48.083Z,14.65
2022-08-07T22:32:42.332Z,14.68
2022-08-07T22:35:11.519Z,14.70
2022-08-07T22:38:07.252Z,14.66
2022-08-07T22:40:56.777Z,14.63
2022-08-07T22:43:33.929Z,14.66
2022-08-07T22:46:21.604Z,14.59
2022-08-07T22:49:07.652Z,14.61
2022-08-07T22:51:51.962Z,14.60
2022-08-07T22:54:37.433Z,14.58
2022-08-07T22:57:51.108Z,14.54
2022-08-07T23:00:28.390Z,14.57
2022-08-07T23:03:14.210Z,14.56
2022-08-07T23:06:15.257Z,14.58
2022-08-07T23:08:58.599Z,14.60
2022-08-07T23:12:10.798Z,14.57
2022-08-07T23:16:04.605Z,14.59
2022-08-07T23:18:01.300Z,14.58
2022-08-07T23:20:55.714Z,14.58
2022-08-07T23:24:08.996Z,14.56
2022-08-07T23:26:57.250Z,14.57
2022-08-07T23:30:35.700Z,14.53
2022-08-07T23:34:20.636Z,14.49
2022-08-07T23:35:54.605Z,14.43
2022-08-07T23:38:43.023Z,14.45
2022-08-07T23:41:47.853Z,14.49
2022-08-07T23:44:52.344Z,14.51
2022-08-07T23:47:29.737Z,14.58
2022-08-07T23:50:26.686Z,14.59
2022-08-07T23:53:08.364Z,14.54
2022-08-07T23:55:55.334Z,14.55
2022-08-07T23:58:37.700Z,14.54
